createdAt,value
2022-10-19T00:01:18.023Z,8.57
2022-10-19T00:03:46.923Z,8.90
2022-10-19T00:06:26.291Z,7.90
2022-10-19T00:08:57.352Z,8.77
2022-10-19T00:11:24.789Z,7.88
2022-10-19T00:13:53.517Z,7.75
2022-10-19T00:16:21.557Z,7.25
2022-10-19T00:18:51.212Z,6.68
2022-10-19T00:21:19.627Z,7.15
2022-10-19T00:23:46.951Z,6.20
2022-10-19T00:26:14.518Z,6.72
2022-10-19T00:28:43.062Z,5.70
2022-10-19T00:31:13.115Z,7.40
2022-10-19T00:33:40.624Z,7.57
2022-10-19T00:36:15.852Z,7.85
2022-10-19T00:38:43.773Z,7.25
2022-10-19T00:41:11.006Z,7.25
2022-10-19T00:44:05.814Z,7.07
2022-10-19T00:46:37.207Z,7.05
2022-10-19T00:49:29.724Z,8.17
2022-10-19T00:54:33.624Z,6.80
2022-10-19T00:57:01.226Z,7.45
2022-10-19T00:59:31.829Z,6.78
2022-10-19T01:01:59.385Z,6.43
2022-10-19T01:04:27.998Z,5.95
2022-10-19T01:06:55.624Z,6.03
2022-10-19T01:09:22.732Z,5.90
2022-10-19T01:12:08.006Z,5.07
2022-10-19T01:14:44.201Z,6.35
2022-10-19T01:17:31.561Z,5.93
2022-10-19T01:20:43.207Z,5.72
2022-10-19T01:23:10.603Z,5.75
2022-10-19T01:25:58.570Z,6.53
2022-10-19T01:28:34.863Z,5.53
2022-10-19T01:31:20.112Z,6.10
2022-10-19T01:33:50.469Z,5.43
2022-10-19T01:36:36.196Z,6.25
2022-10-19T01:39:17.344Z,6.03
2022-10-19T01:41:56.232Z,6.20
2022-10-19T01:44:29.105Z,5.97
2022-10-19T01:47:02.909Z,6.00
2022-10-19T01:49:34.216Z,5.38
2022-10-19T01:52:06.222Z,6.27
2022-10-19T01:54:39.758Z,5.57
2022-10-19T01:57:09.741Z,6.25
2022-10-19T01:59:38.813Z,5.60
2022-10-19T02:02:09.030Z,5.75
2022-10-19T02:04:38.145Z,5.75
2022-10-19T02:07:07.686Z,5.57
2022-10-19T02:09:35.290Z,5.65
2022-10-19T02:12:08.397Z,5.85
2022-10-19T02:14:41.046Z,5.35
2022-10-19T02:17:11.629Z,6.15
2022-10-19T02:19:38.869Z,6.00
2022-10-19T02:22:09.359Z,5.47
2022-10-19T02:24:36.271Z,5.82
2022-10-19T02:27:06.068Z,5.60
2022-10-19T02:29:34.453Z,5.97
2022-10-19T02:32:02.758Z,5.93
2022-10-19T02:34:30.866Z,6.22
2022-10-19T02:37:00.178Z,6.50
2022-10-19T02:39:27.718Z,5.68
2022-10-19T02:41:58.627Z,6.88
2022-10-19T02:44:39.985Z,6.43
2022-10-19T02:47:13.422Z,6.75
2022-10-19T02:49:41.818Z,6.20
2022-10-19T02:52:11.833Z,6.72
2022-10-19T02:54:40.782Z,6.45
2022-10-19T02:57:23.407Z,6.05
2022-10-19T02:59:58.398Z,5.85
2022-10-19T03:02:28.114Z,6.82
2022-10-19T03:04:55.225Z,6.25
2022-10-19T03:07:22.614Z,5.80
2022-10-19T03:09:49.639Z,6.38
2022-10-19T03:12:17.719Z,6.47
2022-10-19T03:14:44.648Z,6.78
2022-10-19T03:17:11.982Z,6.28
2022-10-19T03:19:38.882Z,7.05
2022-10-19T03:22:06.255Z,7.05
2022-10-19T03:24:33.950Z,7.00
2022-10-19T03:27:00.904Z,6.95
2022-10-19T03:29:28.149Z,7.75
2022-10-19T03:31:56.590Z,6.25
2022-10-19T03:34:26.648Z,6.72
2022-10-19T03:36:53.868Z,6.53
2022-10-19T03:39:21.198Z,7.05
2022-10-19T03:41:48.232Z,7.00
2022-10-19T03:44:15.450Z,6.25
2022-10-19T03:46:42.574Z,6.20
2022-10-19T03:49:12.516Z,6.60
2022-10-19T03:51:39.542Z,6.25
2022-10-19T03:54:14.875Z,5.95
2022-10-19T03:56:42.538Z,6.53
2022-10-19T03:59:15.889Z,6.20
2022-10-19T04:01:45.658Z,6.13
2022-10-19T04:04:18.296Z,6.55
2022-10-19T04:06:51.167Z,6.18
2022-10-19T04:09:20.654Z,6.70
2022-10-19T04:11:51.444Z,6.75
2022-10-19T04:14:32.015Z,6.90
2022-10-19T04:17:01.279Z,6.78
2022-10-19T04:19:32.717Z,7.28
2022-10-19T04:21:59.759Z,6.85
2022-10-19T04:24:26.912Z,6.90
2022-10-19T04:26:55.892Z,6.93
2022-10-19T04:29:27.950Z,6.97
2022-10-19T04:31:59.780Z,7.07
2022-10-19T04:34:29.216Z,7.53
2022-10-19T04:36:59.536Z,6.82
2022-10-19T04:39:26.912Z,6.25
2022-10-19T04:41:53.854Z,7.15
2022-10-19T04:44:20.979Z,7.15
2022-10-19T04:46:53.211Z,7.00
2022-10-19T04:49:20.554Z,7.93
2022-10-19T04:51:47.555Z,7.00
2022-10-19T04:54:14.558Z,7.28
2022-10-19T04:56:41.710Z,7.70
2022-10-19T04:59:09.931Z,7.32
2022-10-19T05:01:43.292Z,7.25
2022-10-19T05:04:11.919Z,7.50
2022-10-19T05:06:39.081Z,6.93
2022-10-19T05:09:08.965Z,6.88
2022-10-19T05:11:37.473Z,6.97
2022-10-19T05:14:04.423Z,7.88
2022-10-19T05:16:31.343Z,7.07
2022-10-19T05:19:01.650Z,7.30
2022-10-19T05:21:29.510Z,6.78
2022-10-19T05:23:57.963Z,7.22
2022-10-19T05:26:29.668Z,8.25
2022-10-19T05:29:04.613Z,6.80
2022-10-19T05:31:34.069Z,6.85
2022-10-19T05:34:04.421Z,7.90
2022-10-19T05:36:37.775Z,7.45
2022-10-19T05:39:14.658Z,8.10
2022-10-19T05:41:46.628Z,7.15
2022-10-19T05:44:23.761Z,7.60
2022-10-19T05:46:51.898Z,7.57
2022-10-19T05:49:24.103Z,7.50
2022-10-19T05:54:20.369Z,7.00
2022-10-19T05:56:54.752Z,7.78
2022-10-19T05:59:38.144Z,8.32
2022-10-19T06:02:12.951Z,7.70
2022-10-19T06:04:40.388Z,8.32
2022-10-19T06:07:07.417Z,6.97
2022-10-19T06:09:38.851Z,7.40
2022-10-19T06:12:06.011Z,7.80
2022-10-19T06:14:43.107Z,7.68
2022-10-19T06:17:10.737Z,7.88
2022-10-19T06:19:37.803Z,8.50
2022-10-19T06:22:04.836Z,8.80
2022-10-19T06:24:34.734Z,8.07
2022-10-19T06:27:01.828Z,9.18
2022-10-19T06:29:28.922Z,8.15
2022-10-19T06:31:56.345Z,7.50
2022-10-19T06:34:26.270Z,8.23
2022-10-19T06:36:55.947Z,8.73
2022-10-19T06:39:22.888Z,8.48
2022-10-19T06:41:50.175Z,8.00
2022-10-19T06:44:23.835Z,8.75
2022-10-19T06:46:51.669Z,8.25
2022-10-19T06:49:19.027Z,9.18
2022-10-19T06:51:45.975Z,8.50
2022-10-19T06:54:12.800Z,8.85
2022-10-19T06:56:39.871Z,8.07
2022-10-19T06:59:09.566Z,8.18
2022-10-19T07:01:40.256Z,8.32
2022-10-19T07:04:07.268Z,8.32
2022-10-19T07:06:37.123Z,8.65
2022-10-19T07:09:04.602Z,8.95
2022-10-19T07:11:31.910Z,8.80
2022-10-19T07:13:59.087Z,8.93
2022-10-19T07:16:26.782Z,8.77
2022-10-19T07:18:55.160Z,8.25
2022-10-19T07:21:24.971Z,8.63
2022-10-19T07:23:52.032Z,9.05
2022-10-19T07:26:27.747Z,7.57
2022-10-19T07:29:01.224Z,8.60
2022-10-19T07:31:29.531Z,8.90
2022-10-19T07:34:00.335Z,9.40
2022-10-19T07:36:30.484Z,9.05
2022-10-19T07:38:57.851Z,8.93
2022-10-19T07:41:26.649Z,8.75
2022-10-19T07:43:56.080Z,9.20
2022-10-19T07:46:33.853Z,8.55
2022-10-19T07:49:01.861Z,10.02
2022-10-19T07:54:00.787Z,8.10
2022-10-19T07:56:30.525Z,8.77
2022-10-19T07:59:01.758Z,8.88
2022-10-19T08:01:41.629Z,8.88
2022-10-19T08:06:56.430Z,10.15
2022-10-19T08:09:51.020Z,9.48
2022-10-19T08:12:14.791Z,9.90
2022-10-19T08:14:42.573Z,10.40
2022-10-19T08:17:12.077Z,9.18
2022-10-19T08:19:43.610Z,9.50
2022-10-19T08:22:11.338Z,10.10
2022-10-19T08:24:38.521Z,10.02
2022-10-19T08:27:05.965Z,9.32
2022-10-19T08:29:33.211Z,9.18
2022-10-19T08:32:02.598Z,9.77
2022-10-19T08:34:29.826Z,10.07
2022-10-19T08:36:57.072Z,9.05
2022-10-19T08:39:24.749Z,10.30
2022-10-19T08:42:05.077Z,9.77
2022-10-19T08:44:34.843Z,9.50
2022-10-19T08:47:31.370Z,9.48
2022-10-19T08:49:59.881Z,9.88
2022-10-19T08:52:37.359Z,9.30
2022-10-19T08:55:14.002Z,9.27
2022-10-19T08:58:06.851Z,9.88
2022-10-19T09:03:23.063Z,9.27
2022-10-19T09:08:40.488Z,9.25
2022-10-19T09:11:10.744Z,9.85
2022-10-19T09:14:00.462Z,10.30
2022-10-19T09:16:32.379Z,10.63
2022-10-19T09:19:02.313Z,10.20
2022-10-19T09:21:52.057Z,9.65
2022-10-19T09:24:47.576Z,10.18
2022-10-19T09:27:30.069Z,9.18
2022-10-19T09:29:59.309Z,9.90
2022-10-19T09:32:33.555Z,9.82
2022-10-19T09:35:08.042Z,10.40
2022-10-19T09:37:44.614Z,9.80
2022-10-19T09:40:19.638Z,10.73
2022-10-19T09:42:56.925Z,10.52
2022-10-19T09:45:31.138Z,9.88
2022-10-19T09:48:04.552Z,9.55
2022-10-19T09:50:35.797Z,10.15
2022-10-19T09:53:14.507Z,9.88
2022-10-19T09:55:53.729Z,10.25
2022-10-19T09:58:21.161Z,9.75
2022-10-19T10:00:51.804Z,10.18
2022-10-19T10:03:36.570Z,9.90
2022-10-19T10:06:10.746Z,10.32
2022-10-19T10:08:45.300Z,10.90
2022-10-19T10:11:23.728Z,10.55
2022-10-19T10:13:56.328Z,11.30
2022-10-19T10:16:25.286Z,10.95
2022-10-19T10:18:57.097Z,10.73
2022-10-19T10:21:27.570Z,10.85
2022-10-19T10:24:21.116Z,10.05
2022-10-19T10:26:53.691Z,10.45
2022-10-19T10:29:27.246Z,10.68
2022-10-19T10:31:59.277Z,9.60
2022-10-19T10:34:51.927Z,10.93
2022-10-19T10:37:35.074Z,10.73
2022-10-19T10:40:03.883Z,11.20
2022-10-19T10:42:44.524Z,11.13
2022-10-19T10:45:23.010Z,11.27
2022-10-19T10:47:50.625Z,11.15
2022-10-19T10:50:26.566Z,9.85
2022-10-19T10:53:34.815Z,10.93
2022-10-19T10:56:21.588Z,11.75
2022-10-19T10:58:59.321Z,11.65
2022-10-19T11:01:37.984Z,11.25
2022-10-19T11:04:09.969Z,11.25
2022-10-19T11:06:44.736Z,11.07
2022-10-19T11:09:36.510Z,11.38
2022-10-19T11:12:09.282Z,11.37
2022-10-19T11:14:42.985Z,11.05
2022-10-19T11:17:20.263Z,11.95
2022-10-19T11:19:50.322Z,11.77
2022-10-19T11:22:49.028Z,11.80
2022-10-19T11:25:34.184Z,10.80
2022-10-19T11:28:17.028Z,11.63
2022-10-19T11:31:19.833Z,11.30
2022-10-19T11:34:04.331Z,11.25
2022-10-19T11:36:46.393Z,10.90
2022-10-19T11:39:21.727Z,11.40
2022-10-19T11:42:12.058Z,10.90
2022-10-19T11:45:13.499Z,11.45
2022-10-19T11:47:51.843Z,11.80
2022-10-19T11:51:17.333Z,10.95
2022-10-19T11:54:32.363Z,10.82
2022-10-19T11:57:20.635Z,10.68
2022-10-19T12:00:37.233Z,10.70
2022-10-19T12:03:24.446Z,10.25
2022-10-19T12:06:08.257Z,11.65
2022-10-19T12:08:47.197Z,9.50
2022-10-19T12:11:40.956Z,10.68
2022-10-19T12:16:50.411Z,10.55
2022-10-19T12:19:25.835Z,10.65
2022-10-19T12:22:00.454Z,9.48
2022-10-19T12:24:29.876Z,9.98
2022-10-19T12:27:05.264Z,11.18
2022-10-19T12:29:36.517Z,10.80
2022-10-19T12:32:07.550Z,10.80
2022-10-19T12:34:51.173Z,10.35
2022-10-19T12:37:46.276Z,10.35
2022-10-19T12:40:56.538Z,9.90
2022-10-19T12:44:01.405Z,10.60
2022-10-19T12:46:52.996Z,9.82
2022-10-19T12:49:26.851Z,9.68
2022-10-19T12:51:56.471Z,8.88
2022-10-19T12:54:43.411Z,9.73
2022-10-19T12:57:31.127Z,9.50
2022-10-19T13:00:04.301Z,9.85
2022-10-19T13:02:37.973Z,9.27
2022-10-19T13:05:06.187Z,10.65
2022-10-19T13:07:36.659Z,9.55
2022-10-19T13:10:07.889Z,9.55
2022-10-19T13:12:47.422Z,10.63
2022-10-19T13:15:33.300Z,9.25
2022-10-19T13:18:24.026Z,9.43
2022-10-19T13:20:53.879Z,10.10
2022-10-19T13:23:28.241Z,10.63
2022-10-19T13:26:26.018Z,11.05
2022-10-19T13:28:54.591Z,10.32
2022-10-19T13:31:30.114Z,11.18
2022-10-19T13:33:57.886Z,9.95
2022-10-19T13:36:25.774Z,9.98
2022-10-19T13:38:56.224Z,10.05
2022-10-19T13:41:29.185Z,11.00
2022-10-19T13:44:17.024Z,12.15
2022-10-19T13:47:02.145Z,10.65
2022-10-19T13:49:41.498Z,11.23
2022-10-19T13:52:44.961Z,11.98
2022-10-19T13:55:23.828Z,10.77
2022-10-19T13:58:04.820Z,10.73
2022-10-19T14:00:45.303Z,12.40
2022-10-19T14:03:40.829Z,11.40
2022-10-19T14:06:27.649Z,11.80
2022-10-19T14:09:04.927Z,11.18
2022-10-19T14:11:44.473Z,12.95
2022-10-19T14:14:17.704Z,11.57
2022-10-19T14:16:58.366Z,13.23
2022-10-19T14:19:31.909Z,12.25
2022-10-19T14:22:19.849Z,11.52
2022-10-19T14:24:47.079Z,11.45
2022-10-19T14:27:21.129Z,12.07
2022-10-19T14:29:51.204Z,11.48
2022-10-19T14:32:23.055Z,12.38
2022-10-19T14:34:50.931Z,13.43
2022-10-19T14:37:22.383Z,13.98
2022-10-19T14:40:03.845Z,14.70
2022-10-19T14:42:43.518Z,14.73
2022-10-19T14:45:19.070Z,13.30
2022-10-19T14:47:55.728Z,13.88
2022-10-19T14:50:50.794Z,13.85
2022-10-19T14:53:40.701Z,13.30
2022-10-19T14:56:18.933Z,14.50
2022-10-19T14:59:01.050Z,15.65
2022-10-19T15:01:28.317Z,13.75
2022-10-19T15:03:56.205Z,14.05
2022-10-19T15:06:30.487Z,14.13
2022-10-19T15:09:03.847Z,14.65
2022-10-19T15:11:39.545Z,13.63
2022-10-19T15:14:12.998Z,14.80
2022-10-19T15:16:40.415Z,14.02
2022-10-19T15:19:26.043Z,14.63
2022-10-19T15:22:14.296Z,14.25
2022-10-19T15:25:14.250Z,13.32
2022-10-19T15:27:47.666Z,13.45
2022-10-19T15:30:17.609Z,13.68
2022-10-19T15:33:10.617Z,14.10
2022-10-19T15:35:39.754Z,13.30
2022-10-19T15:38:18.277Z,13.52
2022-10-19T15:40:49.394Z,14.15
2022-10-19T15:43:33.010Z,13.93
2022-10-19T15:46:27.755Z,13.43
2022-10-19T15:48:57.195Z,13.32
2022-10-19T15:51:27.166Z,12.88
2022-10-19T15:54:02.561Z,13.50
2022-10-19T15:56:32.426Z,13.43
2022-10-19T15:59:01.443Z,11.93
2022-10-19T16:01:31.493Z,13.85
2022-10-19T16:03:59.718Z,11.88
2022-10-19T16:06:29.756Z,13.10
2022-10-19T16:08:58.782Z,13.55
2022-10-19T16:11:27.024Z,12.57
2022-10-19T16:13:54.140Z,13.00
2022-10-19T16:16:29.771Z,11.57
2022-10-19T16:18:58.252Z,11.80
2022-10-19T16:21:37.018Z,10.98
2022-10-19T16:24:07.746Z,11.52
2022-10-19T16:26:35.015Z,11.70
2022-10-19T16:29:02.751Z,10.13
2022-10-19T16:31:29.999Z,10.65
2022-10-19T16:33:58.065Z,10.07
2022-10-19T16:36:27.787Z,10.05
2022-10-19T16:38:55.429Z,10.25
2022-10-19T16:41:23.016Z,9.30
2022-10-19T16:43:55.838Z,10.18
2022-10-19T16:46:24.458Z,9.43
2022-10-19T16:48:52.368Z,10.10
2022-10-19T16:51:40.284Z,10.18
2022-10-19T16:54:10.052Z,9.90
2022-10-19T16:56:42.078Z,9.45
2022-10-19T16:59:13.518Z,8.68
2022-10-19T17:01:41.606Z,9.77
2022-10-19T17:04:12.890Z,9.40
2022-10-19T17:06:40.878Z,9.48
2022-10-19T17:12:00.308Z,9.80
2022-10-19T17:14:27.456Z,8.95
2022-10-19T17:16:54.553Z,9.05
2022-10-19T17:19:21.736Z,9.25
2022-10-19T17:21:49.591Z,9.02
2022-10-19T17:24:21.993Z,8.55
2022-10-19T17:26:51.237Z,9.73
2022-10-19T17:29:19.510Z,9.27
2022-10-19T17:31:49.973Z,9.93
2022-10-19T17:34:18.016Z,9.27
2022-10-19T17:36:46.220Z,9.20
2022-10-19T17:39:17.884Z,9.57
2022-10-19T17:41:46.816Z,9.18
2022-10-19T17:44:14.197Z,10.52
2022-10-19T17:46:44.860Z,9.55
2022-10-19T17:49:13.130Z,9.02
2022-10-19T17:51:40.787Z,8.60
2022-10-19T17:54:13.329Z,9.13
2022-10-19T17:56:40.980Z,8.45
2022-10-19T17:59:09.167Z,9.38
2022-10-19T18:01:37.936Z,8.65
2022-10-19T18:04:08.044Z,8.18
2022-10-19T18:06:37.468Z,8.27
2022-10-19T18:09:07.262Z,8.60
2022-10-19T18:11:38.719Z,8.50
2022-10-19T18:14:10.125Z,8.00
2022-10-19T18:16:45.418Z,7.70
2022-10-19T18:19:14.747Z,8.45
2022-10-19T18:21:44.133Z,8.63
2022-10-19T18:24:15.329Z,8.40
2022-10-19T18:26:46.319Z,8.23
2022-10-19T18:29:21.453Z,8.10
2022-10-19T18:31:51.707Z,8.23
2022-10-19T18:34:24.622Z,8.18
2022-10-19T18:36:54.112Z,8.57
2022-10-19T18:39:24.666Z,8.38
2022-10-19T18:41:54.941Z,7.90
2022-10-19T18:44:27.161Z,8.07
2022-10-19T18:46:56.717Z,7.65
2022-10-19T18:49:24.518Z,7.75
2022-10-19T18:51:55.095Z,7.97
2022-10-19T18:54:23.844Z,7.78
2022-10-19T18:56:50.872Z,7.75
2022-10-19T18:59:18.669Z,7.40
2022-10-19T19:01:46.111Z,7.78
2022-10-19T19:04:13.164Z,7.25
2022-10-19T19:06:40.542Z,7.82
2022-10-19T19:09:12.825Z,7.68
2022-10-19T19:11:41.804Z,7.43
2022-10-19T19:14:16.967Z,6.90
2022-10-19T19:16:45.399Z,7.53
2022-10-19T19:19:14.381Z,8.00
2022-10-19T19:21:44.518Z,6.82
2022-10-19T19:24:17.705Z,7.07
2022-10-19T19:26:49.610Z,6.53
2022-10-19T19:29:20.283Z,7.47
2022-10-19T19:31:48.168Z,7.40
2022-10-19T19:34:15.614Z,7.75
2022-10-19T19:36:47.813Z,7.43
2022-10-19T19:39:18.979Z,8.30
2022-10-19T19:41:47.998Z,8.05
2022-10-19T19:44:18.654Z,7.32
2022-10-19T19:46:45.923Z,8.40
2022-10-19T19:49:13.171Z,7.30
2022-10-19T19:51:43.169Z,8.45
2022-10-19T19:54:11.268Z,7.40
2022-10-19T19:56:39.755Z,8.57
2022-10-19T19:59:12.583Z,8.43
2022-10-19T20:01:39.748Z,7.85
2022-10-19T20:04:06.892Z,8.25
2022-10-19T20:06:35.035Z,7.88
2022-10-19T20:09:02.313Z,9.10
2022-10-19T20:11:30.505Z,8.50
2022-10-19T20:13:59.561Z,8.00
2022-10-19T20:16:30.019Z,8.00
2022-10-19T20:19:10.495Z,8.48
2022-10-19T20:21:38.055Z,8.52
2022-10-19T20:24:05.905Z,8.00
2022-10-19T20:26:35.501Z,8.10
2022-10-19T20:29:04.063Z,8.73
2022-10-19T20:31:31.990Z,8.70
2022-10-19T20:33:59.079Z,7.75
2022-10-19T20:36:31.998Z,8.55
2022-10-19T20:38:59.162Z,9.57
2022-10-19T20:41:29.999Z,8.77
2022-10-19T20:43:58.394Z,8.75
2022-10-19T20:46:30.485Z,8.52
2022-10-19T20:49:00.646Z,8.25
2022-10-19T20:51:33.040Z,8.70
2022-10-19T20:54:03.784Z,8.55
2022-10-19T20:56:33.167Z,9.50
2022-10-19T20:59:09.167Z,8.50
2022-10-19T21:01:38.235Z,8.50
2022-10-19T21:04:07.734Z,8.85
2022-10-19T21:06:42.546Z,8.70
2022-10-19T21:09:16.921Z,8.00
2022-10-19T21:11:50.271Z,8.60
2022-10-19T21:14:30.222Z,9.35
2022-10-19T21:16:59.029Z,8.73
2022-10-19T21:19:29.804Z,9.02
2022-10-19T21:22:02.376Z,9.05
2022-10-19T21:24:32.982Z,9.23
2022-10-19T21:27:06.594Z,8.48
2022-10-19T21:29:36.696Z,8.27
2022-10-19T21:32:04.208Z,8.27
2022-10-19T21:34:32.115Z,8.70
2022-10-19T21:36:59.620Z,8.35
2022-10-19T21:39:26.677Z,8.32
2022-10-19T21:41:53.981Z,9.02
2022-10-19T21:44:23.252Z,8.63
2022-10-19T21:46:51.199Z,8.93
2022-10-19T21:49:18.702Z,9.77
2022-10-19T21:51:52.116Z,9.45
2022-10-19T21:54:29.312Z,8.65
2022-10-19T21:56:58.428Z,8.57
2022-10-19T21:59:25.765Z,9.63
2022-10-19T22:01:55.231Z,10.10
2022-10-19T22:04:26.049Z,10.80
2022-10-19T22:06:55.517Z,11.30
2022-10-19T22:09:22.996Z,10.50
2022-10-19T22:11:50.137Z,9.98
2022-10-19T22:14:20.715Z,9.38
2022-10-19T22:16:47.728Z,9.98
2022-10-19T22:19:14.780Z,10.15
2022-10-19T22:21:42.077Z,9.68
2022-10-19T22:24:13.586Z,8.98
2022-10-19T22:26:44.196Z,9.98
2022-10-19T22:29:11.459Z,9.20
2022-10-19T22:31:38.670Z,9.32
2022-10-19T22:34:09.437Z,9.15
2022-10-19T22:36:37.493Z,10.07
2022-10-19T22:39:05.599Z,9.00
2022-10-19T22:42:30.077Z,9.82
2022-10-19T22:45:16.310Z,9.48
2022-10-19T22:47:43.461Z,9.05
2022-10-19T22:50:11.985Z,9.55
2022-10-19T22:52:39.206Z,9.98
2022-10-19T22:55:06.583Z,9.73
2022-10-19T22:57:34.010Z,9.52
2022-10-19T23:00:01.029Z,9.65
2022-10-19T23:02:31.582Z,10.05
2022-10-19T23:04:58.726Z,10.05
2022-10-19T23:07:25.799Z,10.48
2022-10-19T23:09:52.988Z,10.25
2022-10-19T23:12:22.591Z,10.30
2022-10-19T23:14:50.158Z,10.00
2022-10-19T23:17:17.282Z,10.43
2022-10-19T23:19:44.369Z,10.02
2022-10-19T23:22:11.377Z,9.00
2022-10-19T23:24:38.479Z,9.70
2022-10-19T23:27:05.745Z,9.45
2022-10-19T23:29:35.781Z,10.63
2022-10-19T23:32:02.762Z,10.88
2022-10-19T23:34:29.967Z,10.15
2022-10-19T23:36:56.938Z,9.45
2022-10-19T23:39:23.809Z,9.50
2022-10-19T23:41:50.663Z,9.82
2022-10-19T23:44:17.777Z,10.57
2022-10-19T23:46:44.975Z,9.05
2022-10-19T23:49:12.004Z,10.32
2022-10-19T23:51:39.128Z,9.63
2022-10-19T23:54:11.460Z,10.68
2022-10-19T23:56:38.467Z,10.75
2022-10-19T23:59:07.930Z,10.63
